sensor_id;sensor_type;location;lat;lon;timestamp;temperature;humidity
22069;DHT22;13887;57.196;-2.100;2023-12-20T19:42:22;7.93;92.41
22069;DHT22;13887;57.196;-2.100;2023-12-20T19:44:54;7.91;92.38
22069;DHT22;13887;57.196;-2.100;2023-12-20T19:47:22;7.90;92.43
22069;DHT22;13887;57.196;-2.100;2023-12-20T19:49:49;7.96;92.66
22069;DHT22;13887;57.196;-2.100;2023-12-20T19:52:16;8.01;92.10
22069;DHT22;13887;57.196;-2.100;2023-12-20T19:54:44;7.97;92.20
22069;DHT22;13887;57.196;-2.100;2023-12-20T19:57:11;7.92;92.34
22069;DHT22;13887;57.196;-2.100;2023-12-20T19:59:41;7.93;92.24
22069;DHT22;13887;57.196;-2.100;2023-12-20T20:02:09;7.90;92.21
22069;DHT22;13887;57.196;-2.100;2023-12-20T20:04:36;7.89;92.13
22069;DHT22;13887;57.196;-2.100;2023-12-20T20:07:04;7.85;92.24
22069;DHT22;13887;57.196;-2.100;2023-12-20T20:09:36;7.85;92.24
22069;DHT22;13887;57.196;-2.100;2023-12-20T20:12:04;7.85;92.38
22069;DHT22;13887;57.196;-2.100;2023-12-20T20:14:31;7.83;92.43
22069;DHT22;13887;57.196;-2.100;2023-12-20T20:16:59;7.83;92.44
22069;DHT22;13887;57.196;-2.100;2023-12-20T20:19:28;7.83;92.32
22069;DHT22;13887;57.196;-2.100;2023-12-20T20:21:55;7.85;92.34
22069;DHT22;13887;57.196;-2.100;2023-12-20T20:24:23;7.85;92.27
22069;DHT22;13887;57.196;-2.100;2023-12-20T20:26:51;7.86;92.22
22069;DHT22;13887;57.196;-2.100;2023-12-20T20:29:18;7.87;92.21
22069;DHT22;13887;57.196;-2.100;2023-12-20T20:31:46;7.86;92.30
22069;DHT22;13887;57.196;-2.100;2023-12-20T20:34:13;7.87;92.14
22069;DHT22;13887;57.196;-2.100;2023-12-20T20:36:40;7.86;92.19
22069;DHT22;13887;57.196;-2.100;2023-12-20T20:39:07;7.85;92.30
22069;DHT22;13887;57.196;-2.100;2023-12-20T20:41:35;7.92;92.10
22069;DHT22;13887;57.196;-2.100;2023-12-20T20:44:02;7.94;91.62
22069;DHT22;13887;57.196;-2.100;2023-12-20T20:46:30;7.97;92.04
22069;DHT22;13887;57.196;-2.100;2023-12-20T20:48:58;8.01;91.68
22069;DHT22;13887;57.196;-2.100;2023-12-20T20:51:25;7.98;91.84
22069;DHT22;13887;57.196;-2.100;2023-12-20T20:53:52;7.97;91.87
22069;DHT22;13887;57.196;-2.100;2023-12-20T20:56:34;7.97;91.85
22069;DHT22;13887;57.196;-2.100;2023-12-20T20:59:02;7.93;91.99
22069;DHT22;13887;57.196;-2.100;2023-12-20T21:01:29;7.98;92.09
22069;DHT22;13887;57.196;-2.100;2023-12-20T21:03:59;8.20;91.70
22069;DHT22;13887;57.196;-2.100;2023-12-20T21:06:26;8.22;91.02
22069;DHT22;13887;57.196;-2.100;2023-12-20T21:08:57;8.14;91.27
22069;DHT22;13887;57.196;-2.100;2023-12-20T21:11:24;8.07;91.68
22069;DHT22;13887;57.196;-2.100;2023-12-20T21:13:51;8.07;91.53
22069;DHT22;13887;57.196;-2.100;2023-12-20T21:16:19;8.05;91.69
22069;DHT22;13887;57.196;-2.100;2023-12-20T21:18:46;8.05;91.64
22069;DHT22;13887;57.196;-2.100;2023-12-20T21:21:14;8.07;91.65
22069;DHT22;13887;57.196;-2.100;2023-12-20T21:23:42;8.08;91.47
22069;DHT22;13887;57.196;-2.100;2023-12-20T21:26:09;8.07;91.56
22069;DHT22;13887;57.196;-2.100;2023-12-20T21:28:38;8.07;91.42
22069;DHT22;13887;57.196;-2.100;2023-12-20T21:31:06;8.18;91.15
22069;DHT22;13887;57.196;-2.100;2023-12-20T21:33:33;8.15;91.14
22069;DHT22;13887;57.196;-2.100;2023-12-20T21:36:01;8.16;91.02
22069;DHT22;13887;57.196;-2.100;2023-12-20T21:38:28;8.22;90.85
22069;DHT22;13887;57.196;-2.100;2023-12-20T21:40:56;8.21;90.93
22069;DHT22;13887;57.196;-2.100;2023-12-20T21:43:23;8.26;90.66
22069;DHT22;13887;57.196;-2.100;2023-12-20T21:45:50;8.23;90.65
22069;DHT22;13887;57.196;-2.100;2023-12-20T21:48:18;8.21;90.74
22069;DHT22;13887;57.196;-2.100;2023-12-20T21:50:45;8.30;90.41
22069;DHT22;13887;57.196;-2.100;2023-12-20T21:53:12;8.37;90.00
22069;DHT22;13887;57.196;-2.100;2023-12-20T21:55:40;8.33;90.13
22069;DHT22;13887;57.196;-2.100;2023-12-20T21:58:07;8.36;90.01
22069;DHT22;13887;57.196;-2.100;2023-12-20T22:00:35;8.37;90.05
22069;DHT22;13887;57.196;-2.100;2023-12-20T22:03:03;8.38;90.02
22069;DHT22;13887;57.196;-2.100;2023-12-20T22:05:38;8.41;89.89
22069;DHT22;13887;57.196;-2.100;2023-12-20T22:08:06;8.46;89.67
22069;DHT22;13887;57.196;-2.100;2023-12-20T22:10:34;8.44;89.86
22069;DHT22;13887;57.196;-2.100;2023-12-20T22:13:01;8.45;89.72
22069;DHT22;13887;57.196;-2.100;2023-12-20T22:15:29;8.46;89.85
22069;DHT22;13887;57.196;-2.100;2023-12-20T22:17:56;8.45;89.83
22069;DHT22;13887;57.196;-2.100;2023-12-20T22:20:23;8.50;89.74
22069;DHT22;13887;57.196;-2.100;2023-12-20T22:22:51;8.49;89.89
22069;DHT22;13887;57.196;-2.100;2023-12-20T22:25:18;8.47;89.93
22069;DHT22;13887;57.196;-2.100;2023-12-20T22:27:46;8.53;89.70
22069;DHT22;13887;57.196;-2.100;2023-12-20T22:30:13;8.51;89.73
22069;DHT22;13887;57.196;-2.100;2023-12-20T22:32:41;8.49;89.82
22069;DHT22;13887;57.196;-2.100;2023-12-20T22:35:09;8.49;89.95
22069;DHT22;13887;57.196;-2.100;2023-12-20T22:37:36;8.49;89.92
22069;DHT22;13887;57.196;-2.100;2023-12-20T22:40:04;8.50;89.83
22069;DHT22;13887;57.196;-2.100;2023-12-20T22:42:31;8.49;89.91
22069;DHT22;13887;57.196;-2.100;2023-12-20T22:44:59;8.47;89.95
22069;DHT22;13887;57.196;-2.100;2023-12-20T22:47:26;8.47;90.08
22069;DHT22;13887;57.196;-2.100;2023-12-20T22:49:53;8.47;90.00
22069;DHT22;13887;57.196;-2.100;2023-12-20T22:52:20;8.47;89.92
22069;DHT22;13887;57.196;-2.100;2023-12-20T22:54:48;8.46;90.00
22069;DHT22;13887;57.196;-2.100;2023-12-20T22:57:16;8.49;89.78
22069;DHT22;13887;57.196;-2.100;2023-12-20T22:59:43;8.52;89.99
22069;DHT22;13887;57.196;-2.100;2023-12-20T23:02:11;8.52;90.04
22069;DHT22;13887;57.196;-2.100;2023-12-20T23:04:38;8.50;89.80
22069;DHT22;13887;57.196;-2.100;2023-12-20T23:07:07;8.53;89.57
22069;DHT22;13887;57.196;-2.100;2023-12-20T23:09:34;8.57;89.35
22069;DHT22;13887;57.196;-2.100;2023-12-20T23:12:02;8.58;89.22
22069;DHT22;13887;57.196;-2.100;2023-12-20T23:14:30;8.55;89.46
22069;DHT22;13887;57.196;-2.100;2023-12-20T23:16:57;8.56;89.52
22069;DHT22;13887;57.196;-2.100;2023-12-20T23:19:24;8.55;89.47
22069;DHT22;13887;57.196;-2.100;2023-12-20T23:21:52;8.53;89.69
22069;DHT22;13887;57.196;-2.100;2023-12-20T23:24:19;8.53;89.47
22069;DHT22;13887;57.196;-2.100;2023-12-20T23:26:46;8.58;89.18
22069;DHT22;13887;57.196;-2.100;2023-12-20T23:29:14;8.66;88.56
22069;DHT22;13887;57.196;-2.100;2023-12-20T23:31:41;8.65;88.85
22069;DHT22;13887;57.196;-2.100;2023-12-20T23:34:08;8.64;88.78
22069;DHT22;13887;57.196;-2.100;2023-12-20T23:36:36;8.70;88.53
22069;DHT22;13887;57.196;-2.100;2023-12-20T23:39:03;8.67;88.61
22069;DHT22;13887;57.196;-2.100;2023-12-20T23:41:30;8.70;88.51
22069;DHT22;13887;57.196;-2.100;2023-12-20T23:43:57;8.77;87.85
22069;DHT22;13887;57.196;-2.100;2023-12-20T23:46:25;8.77;87.85
22069;DHT22;13887;57.196;-2.100;2023-12-20T23:48:52;8.75;87.94
22069;DHT22;13887;57.196;-2.100;2023-12-20T23:51:19;8.76;87.96
22069;DHT22;13887;57.196;-2.100;2023-12-20T23:53:46;8.75;88.06
22069;DHT22;13887;57.196;-2.100;2023-12-20T23:56:14;8.86;87.22
22069;DHT22;13887;57.196;-2.100;2023-12-20T23:58:56;8.91;86.99
